Tiempo atmosférico en la estación meteorológica de Fuentes de Andalucía, Sevilla (165 m.)



Fecha
DESCASC
Temp. máxima en grados centígrados (hora)
DESCASC
Temp. mínima en grados centígrados (hora)
DESCASC
Temp. media en grados centígrados
DESCASC
Racha de viento máxima en m/sg (hora)
DESCASC
Velocidad máxima media en intervalos de 10 minutos(hora)
DESCASC
Precipitaciones diarias en mm
DESCASC
Precipitaciones de 00:00 a 06:00 en mm
DESCASC
Precipitaciones de 06:00 a 12:00 en mm
DESCASC
Precipitaciones de 12:00 a 18:00 en mm
DESCASC
Precipitaciones de 18:00 a 24:00 en mm
DESCASC
06-06-2019 27.1 (17:10) 12.7 (00:00) 19.9 13.06 (16:30) 8.61 (19:50) 0 0 0 0 0
05-06-2019 26.3 (18:30) 12.8 (00:00) 19.5 10.83 (03:50) 7.22 (03:50) 0 0 0 0 0
18-06-2019 28 (16:40) 13.5 (00:00) 20.8 11.11 (18:20) 7.78 (18:30) 0 0 0 0 0
15-06-2019 29.6 (18:30) 13.5 (00:00) 21.6 8.06 (12:50) 5 (23:20) 0 0 0 0 0
11-06-2019 30.1 (17:50) 13.6 (00:00) 21.9 11.39 (19:10) 8.33 (20:10) 0 0 0 0 0
08-06-2019 31.9 (17:10) 14.2 (00:00) 23 11.11 (20:40) 7.22 (21:10) 0 0 0 0 0
10-06-2019 29.9 (17:40) 14.3 (00:00) 22.1 16.11 (18:40) 10 (19:10) 0 0 0 0 0
12-06-2019 30.6 (18:00) 14.6 (00:00) 22.6 10 (22:40) 7.22 (22:10) 0 0 0 0 0
07-06-2019 27.8 (18:40) 14.9 (00:00) 21.3 9.44 (00:10) 7.22 (01:00) 0 0 0 0 0
31-05-2019 33 (17:10) 15 (00:00) 24 12.22 (18:00) 5.83 (19:50) 0 0 0 0 0
17-06-2019 32.1 (17:30) 15.2 (00:00) 23.6 10.56 (19:50) 8.06 (20:10) 0 0 0 0 0
14-06-2019 25.2 (17:10) 15.3 (00:00) 20.3 15 (17:40) 10 (18:20) 0 0 0 0 0
25-05-2019 31 (17:40) 15.6 (00:00) 23.3 8.06 (22:50) 5.28 (23:10) 0 0 0 0 0
16-06-2019 31.3 (17:40) 15.7 (00:00) 23.5 10.28 (20:40) 7.5 (21:10) 0 0 0 0 0
20-06-2019 28.3 (17:20) 15.7 (00:00) 22 13.33 (19:40) 8.61 (20:20) 0 0 0 0 0
21-06-2019 32 (19:10) 15.7 (00:00) 23.8 12.22 (20:40) 8.06 (20:40) 0 0 0 0 0
13-06-2019 29.3 (16:50) 15.8 (00:00) 22.5 13.33 (23:40) 7.78 (21:10) 0 0 0 0 0
19-06-2019 30.3 (18:40) 16.1 (00:00) 23.2 14.44 (22:40) 9.17 (20:30) 0 0 0 0 0
26-05-2019 33.3 (18:50) 16.2 (00:00) 24.8 9.17 (18:10) 6.11 (23:50) 0 0 0 0 0
04-06-2019 31.3 (16:40) 16.6 (00:00) 23.9 14.72 (19:40) 10.28 (19:00) 0 0 0 0 0
09-06-2019 29.5 (17:00) 16.7 (00:00) 23.1 15.28 (19:40) 11.11 (19:30) 0 0 0 0 0
02-06-2019 36 (17:30) 16.8 (00:00) 26.4 8.33 (11:30) 5 (23:40) 0 0 0 0 0
30-05-2019 30.8 (16:50) 16.8 (00:00) 23.8 10.28 (11:40) 6.11 (10:20) 0 0 0 0 0
27-05-2019 35.3 (18:30) 16.9 (00:00) 26.1 15 (20:40) 8.61 (19:30) 0 0 0 0 0
22-06-2019 34.3 (17:50) 17.2 (00:00) 25.8 10.56 (20:00) 8.06 (20:00) 0 0 0 0 0
23-06-2019 32.7 (17:50) 17.6 (00:00) 25.2 11.11 (20:40) 8.33 (20:50) 0 0 0 0 0
03-06-2019 35.9 (17:40) 17.9 (00:00) 26.9 10.28 (20:50) 7.78 (20:50) 0 0 0 0 0
01-06-2019 33.5 (17:30) 18 (00:00) 25.8 8.89 (07:40) 4.72 (07:10) 0 0 0 0 0
29-05-2019 34.3 (17:30) 18.1 (00:00) 26.2 11.67 (10:10) 6.67 (10:20) 0 0 0 0 0
28-05-2019 36 (17:00) 19 (00:00) 27.5 11.11 (19:40) 8.61 (19:50) 0 0 0 0 0

Gráficas

Temp. máximas Temp. mínimas Temp. medias Precipitaciones Rachas de viento máximas Velocidades máximas media en intervalos de 10 minutos

Datos horarios

Fecha y hora oficial Temperatura (ºC) Velocidad del viento (km/h) Dirección del viento Racha (km/h) Dirección de racha Precipitación (mm) Presión (hPa) Tendencia (hPa) Humedad (%)
2019-06-23 23:00:00 24.4 18 Sudoeste 33 Sudoeste 0 -- -- 54
2019-06-23 22:00:00 25.8 23 Sudoeste 35 Sudoeste 0 -- -- 53
2019-06-23 21:00:00 27.6 28 Sudoeste 40 Sudoeste 0 -- -- 50
2019-06-23 20:00:00 30.6 25 Oeste 37 Oeste 0 -- -- 37
2019-06-23 19:00:00 31.6 25 Oeste 33 Sudoeste 0 -- -- 33
2019-06-23 18:00:00 32.7 20 Oeste 31 Sudoeste 0 -- -- 34
2019-06-23 17:00:00 32.3 20 Oeste 37 Sudoeste 0 -- -- 33
2019-06-23 16:00:00 32.2 14 Oeste 31 Oeste 0 -- -- 32
2019-06-23 15:00:00 31.1 13 Oeste 27 Oeste 0 -- -- 32
2019-06-23 14:00:00 29.9 8 Oeste 22 Sudoeste 0 -- -- 34
2019-06-23 13:00:00 28.5 10 Oeste 25 Oeste 0 -- -- 34
2019-06-23 12:00:00 26.7 8 Oeste 18 Oeste 0 -- -- 37
2019-06-23 11:00:00 24.5 8 Noroeste 17 Noroeste 0 -- -- 42
2019-06-23 10:00:00 22.6 8 Oeste 14 Noroeste 0 -- -- 58
2019-06-23 09:00:00 21.1 3 Sudoeste 6 Sudeste 0 -- -- 62
2019-06-23 08:00:00 18.3 4 Sudeste 6 Sudeste 0 -- -- 54
2019-06-23 07:00:00 17.8 2 Sudeste 7 Sudoeste 0 -- -- 56
2019-06-23 06:00:00 18.6 7 Sudoeste 9 Sur 0 -- -- 53
2019-06-23 05:00:00 18.5 8 Sur 13 Sudoeste 0 -- -- 54
2019-06-23 04:00:00 18.7 10 Sudoeste 15 Sudoeste 0 -- -- 56
2019-06-23 03:00:00 18.6 13 Sur 21 Sudoeste 0 -- -- 56
2019-06-23 02:00:00 19.6 14 Sur 23 Sur 0 -- -- 55
2019-06-23 01:00:00 20.8 19 Sudoeste 28 Sudoeste 0 -- -- 52
2019-06-23 00:00:00 22 19 Sur 31 Sudoeste 0 -- -- 50
2019-06-22 23:00:00 23.7 23 Sudoeste 33 Sudoeste 0 -- -- 47
2019-06-22 22:00:00 26 23 Sudoeste 33 Sudoeste 0 -- -- 43
2019-06-22 21:00:00 29.3 26 Oeste 37 Sudoeste 0 -- -- 36
2019-06-22 20:00:00 32 29 Oeste 38 Oeste 0 -- -- 33
2019-06-22 19:00:00 33.4 17 Sudoeste 31 Noroeste 0 -- -- 26
2019-06-22 18:00:00 34.1 14 Oeste 29 Sudoeste 0 -- -- 25
2019-06-22 17:00:00 33.5 11 Sudoeste 30 Sudoeste 0 -- -- 24
2019-06-22 16:00:00 32.6 9 Noroeste 24 Noroeste 0 -- -- 26
2019-06-22 15:00:00 32.2 12 Norte 23 Oeste 0 -- -- 28
2019-06-22 14:00:00 31.5 11 Oeste 22 Oeste 0 -- -- 28
2019-06-22 13:00:00 29.8 8 Oeste 17 Oeste 0 -- -- 32
2019-06-22 12:00:00 28.1 7 Noroeste 17 Oeste 0 -- -- 37
2019-06-22 11:00:00 26.8 4 Sudeste 14 Este 0 -- -- 39
2019-06-22 10:00:00 24.7 6 Este 13 Este 0 -- -- 45
2019-06-22 09:00:00 20.9 3 Norte 5 Norte 0 -- -- 57
2019-06-22 08:00:00 17.8 2 Este 12 Sudeste 0 -- -- 66
2019-06-22 07:00:00 17.2 5 Sudeste 9 Sudeste 0 -- -- 67
2019-06-22 06:00:00 17.6 0 Calma 9 Sudeste 0 -- -- 67
2019-06-22 05:00:00 17.8 4 Norte 9 Nordeste 0 -- -- 67
2019-06-22 04:00:00 18.1 5 Noroeste 11 Oeste 0 -- -- 64
2019-06-22 03:00:00 19 5 Oeste 17 Sudoeste 0 -- -- 59
2019-06-22 02:00:00 19 12 Sudoeste 19 Sudoeste 0 -- -- 58
2019-06-22 01:00:00 19.7 13 Sudoeste 23 Sur 0 -- -- 57
2019-06-22 00:00:00 20.9 17 Sudoeste 28 Sudoeste 0 -- -- 57
2019-06-21 23:00:00 22.4 21 Sudoeste 31 Sudoeste 0 -- -- 54
2019-06-21 22:00:00 25.1 17 Sudoeste 30 Sudoeste 0 -- -- 44
2019-06-21 21:00:00 27.7 26 Sudoeste 44 Sudoeste 0 -- -- 40
2019-06-21 20:00:00 31.3 14 Sudoeste 22 Oeste 0 -- -- 23
2019-06-21 19:00:00 31.9 10 Sudoeste 20 Oeste 0 -- -- 20
2019-06-21 18:00:00 31.3 12 Sudoeste 26 Oeste 0 -- -- 20
2019-06-21 17:00:00 30.7 12 Oeste 37 Oeste 0 -- -- 21
2019-06-21 16:00:00 29.8 13 Oeste 29 Noroeste 0 -- -- 27
2019-06-21 15:00:00 28.7 7 Oeste 23 Oeste 0 -- -- 31
2019-06-21 14:00:00 27.5 11 Oeste 21 Oeste 0 -- -- 34
2019-06-21 13:00:00 25.8 8 Oeste 20 Sudoeste 0 -- -- 41
2019-06-21 12:00:00 24.1 10 Sudoeste 21 Oeste 0 -- -- 46
2019-06-21 11:00:00 22 6 Sudoeste 13 Sur 0 -- -- 55
2019-06-21 10:00:00 20 5 Sudoeste 10 Sudoeste 0 -- -- 61
2019-06-21 09:00:00 17.8 6 Sudoeste 13 Sudoeste 0 -- -- 70
2019-06-21 08:00:00 16 9 Sur 17 Sur 0 -- -- 78
2019-06-21 07:00:00 15.9 11 Sur 13 Sur 0 -- -- 77
2019-06-21 06:00:00 16 10 Sur 17 Sur 0 -- -- 78
2019-06-21 05:00:00 16.1 10 Sudoeste 17 Sur 0 -- -- 76
2019-06-21 04:00:00 16.6 11 Sudoeste 17 Sur 0 -- -- 73
2019-06-21 03:00:00 17.2 14 Sudoeste 19 Sudoeste 0 -- -- 71
2019-06-21 02:00:00 18 12 Sudoeste 24 Sudoeste 0 -- -- 68
2019-06-21 01:00:00 18.8 14 Sudoeste 29 Sudoeste 0 -- -- 65
2019-06-21 00:00:00 19.6 20 Sudoeste 33 Sudoeste 0 -- -- 62
2019-06-20 23:00:00 20.4 22 Sudoeste 35 Sudoeste 0 -- -- 59
2019-06-20 22:00:00 21.7 24 Sudoeste 39 Sudoeste 0 -- -- 54
2019-06-20 21:00:00 23.7 30 Sudoeste 39 Sudoeste 0 -- -- 50
2019-06-20 20:00:00 25.7 28 Sudoeste 48 Sudoeste 0 -- -- 47
2019-06-20 19:00:00 27.3 30 Sudoeste 44 Oeste 0 -- -- 43
2019-06-20 18:00:00 28.1 21 Oeste 36 Sudoeste 0 -- -- 41
2019-06-20 17:00:00 28.1 21 Sudoeste 40 Oeste 0 -- -- 40
2019-06-20 16:00:00 27.2 16 Sudoeste 41 Sudoeste 0 -- -- 39
2019-06-20 15:00:00 27 24 Sudoeste 41 Oeste 0 -- -- 40
2019-06-20 14:00:00 26.9 21 Sudoeste 39 Sudoeste 0 -- -- 43
2019-06-20 13:00:00 25.6 15 Sudoeste 28 Oeste 0 -- -- 48
2019-06-20 12:00:00 24 18 Sudoeste 29 Sudoeste 0 -- -- 55
2019-06-20 11:00:00 22.2 12 Sudoeste 18 Sudoeste 0 -- -- 60
2019-06-20 10:00:00 20.6 5 Sudoeste 12 Sudoeste 0 -- -- 70
2019-06-20 09:00:00 18 8 Sudoeste 13 Sudoeste 0 -- -- 79
2019-06-20 08:00:00 16 9 Sudoeste 13 Sudoeste 0 -- -- 87
2019-06-20 07:00:00 15.7 9 Sudoeste 13 Sudoeste 0 -- -- 88
2019-06-20 06:00:00 16.1 10 Sudoeste 17 Sudoeste 0 -- -- 87
2019-06-20 05:00:00 16.7 12 Sudoeste 21 Sudoeste 0 -- -- 86
2019-06-20 04:00:00 17.1 13 Sudoeste 24 Sudoeste 0 -- -- 85
2019-06-20 03:00:00 17.6 18 Sudoeste 31 Sudoeste 0 -- -- 85
2019-06-20 02:00:00 18 21 Sudoeste 28 Sudoeste 0 -- -- 84
2019-06-20 01:00:00 18.6 20 Sudoeste 37 Sudoeste 0 -- -- 80
2019-06-20 00:00:00 19.4 21 Sudoeste 36 Sudoeste 0 -- -- 76
2019-06-19 23:00:00 20.4 29 Sudoeste 52 Sudoeste 0 -- -- 69
2019-06-19 22:00:00 21.8 28 Sudoeste 42 Sudoeste 0 -- -- 64
2019-06-19 21:00:00 24.6 31 Sudoeste 45 Sudoeste 0 -- -- 56
2019-06-19 20:00:00 28.1 26 Sudoeste 42 Oeste 0 -- -- 45
2019-06-19 19:00:00 30.1 17 Sudoeste 33 Oeste 0 -- -- 38
2019-06-19 18:00:00 30.2 17 Oeste 31 Sudoeste 0 -- -- 34
2019-06-19 17:00:00 29.5 19 Oeste 30 Oeste 0 -- -- 34
2019-06-19 16:00:00 28.7 12 Oeste 29 Oeste 0 -- -- 38
2019-06-19 15:00:00 27.4 13 Noroeste -- -- -- -- -- 42
2019-06-19 14:00:00 26 8 Noroeste 22 Oeste 0 -- -- 46
2019-06-19 13:00:00 24.6 6 Oeste 18 Oeste 0 -- -- 51
2019-06-19 12:00:00 22.3 5 Sudoeste 12 Sudoeste 0 -- -- 58
2019-06-19 11:00:00 20.3 4 Sudoeste 15 Noroeste 0 -- -- 68
2019-06-19 10:00:00 19.3 6 Oeste 16 Noroeste 0 -- -- 72
2019-06-19 09:00:00 18 11 Oeste 16 Oeste 0 -- -- 78
2019-06-19 08:00:00 16.8 3 Oeste 11 Sudoeste 0 -- -- 89
2019-06-19 07:00:00 16.3 7 Sudoeste 17 Sudoeste 0 -- -- 88
2019-06-19 06:00:00 16.3 11 Sudoeste 19 Sudoeste 0 -- -- 88
2019-06-19 05:00:00 17.1 15 Sudoeste 25 Sudoeste 0 -- -- 85
2019-06-19 04:00:00 17.8 18 Sudoeste 23 Sudoeste 0 -- -- 85
2019-06-19 03:00:00 17.5 18 Sudoeste 26 Sudoeste 0 -- -- 88
2019-06-19 02:00:00 17.6 15 Sudoeste 22 Sudoeste 0 -- -- 85
2019-06-19 01:00:00 18.4 14 Sudoeste 27 Sudoeste 0 -- -- 80
2019-06-19 00:00:00 19.4 21 Sudoeste 28 Sudoeste 0 -- -- 73
2019-06-18 23:00:00 20.6 20 Sudoeste 34 Sudoeste 0 -- -- 68
2019-06-18 22:00:00 22.1 19 Sudoeste 32 Oeste 0 -- -- 60
2019-06-18 21:00:00 24.2 26 Oeste 36 Sudoeste 0 -- -- 55
2019-06-18 20:00:00 26.1 24 Oeste 39 Oeste 0 -- -- 48
2019-06-18 19:00:00 26.9 24 Oeste 40 Sudoeste 0 -- -- 45
2019-06-18 18:00:00 27.7 24 Sudoeste 40 Oeste 0 -- -- 43
2019-06-18 17:00:00 27.8 25 Sudoeste 37 Sudoeste 0 -- -- 42
2019-06-18 16:00:00 27.1 24 Oeste 38 Oeste 0 -- -- 40
2019-06-18 15:00:00 26.8 22 Sudoeste 35 Sudoeste 0 -- -- 35
2019-06-18 14:00:00 25.4 21 Sudoeste 38 Sudoeste 0 -- -- 39
2019-06-18 13:00:00 23.7 17 Sudoeste 33 Sudoeste 0 -- -- 44
2019-06-18 12:00:00 21.9 17 Sudoeste 31 Sudoeste 0 -- -- 54
2019-06-18 11:00:00 20 18 Sudoeste 28 Sudoeste 0 -- -- 64
2019-06-18 10:00:00 18 22 Oeste 32 Oeste 0 -- -- 73
2019-06-18 09:00:00 16.6 16 Sudoeste 23 Sudoeste 0 -- -- 82
2019-06-18 08:00:00 14.4 15 Sudoeste 23 Sudoeste 0 -- -- 91
2019-06-18 07:00:00 13.8 15 Sudoeste 21 Sudoeste 0 -- -- 91
2019-06-18 06:00:00 13.5 12 Sudoeste 17 Sudoeste 0 -- -- 89
2019-06-18 05:00:00 14.2 10 Sudoeste 19 Sudoeste 0 -- -- 85
2019-06-18 04:00:00 14.9 13 Sudoeste 18 Sudoeste 0 -- -- 79
2019-06-18 03:00:00 16 14 Sudoeste 18 Sudoeste 0 -- -- 73
2019-06-18 02:00:00 17.1 11 Sudoeste 20 Sudoeste 0 -- -- 62
2019-06-18 01:00:00 18.6 13 Sudoeste 22 Sudoeste 0 -- -- 58
2019-06-18 00:00:00 20.2 12 Sudoeste 27 Sudoeste 0 -- -- 53
2019-06-17 23:00:00 21.9 14 Sudoeste 24 Sudoeste 0 -- -- 52
2019-06-17 22:00:00 24 19 Sudoeste 31 Sudoeste 0 -- -- 45
2019-06-17 21:00:00 26.9 26 Sudoeste 36 Oeste 0 -- -- 39
2019-06-17 20:00:00 29.1 27 Oeste 38 Sudoeste 0 -- -- 37
2019-06-17 19:00:00 30.9 22 Oeste 35 Oeste 0 -- -- 30
2019-06-17 18:00:00 31.7 19 Oeste 31 Sudoeste 0 -- -- 24
2019-06-17 17:00:00 31.7 16 Sudoeste 37 Sudoeste 0 -- -- 25
2019-06-17 16:00:00 31.2 17 Sudoeste 31 Sudoeste 0 -- -- 25
2019-06-17 15:00:00 29.8 12 Sudoeste 25 Sudoeste 0 -- -- 27
2019-06-17 14:00:00 28.5 6 Este 17 Sudoeste 0 -- -- 27
2019-06-17 13:00:00 26.9 6 Sudoeste 14 Sudoeste 0 -- -- 34
2019-06-17 12:00:00 25.2 5 Sudeste 12 Sur 0 -- -- 37
2019-06-17 11:00:00 22.9 5 Norte 10 Noroeste 0 -- -- 44
2019-06-17 10:00:00 21 2 Sudeste 6 Este 0 -- -- 52
2019-06-17 09:00:00 18.8 3 Sudeste 6 Este 0 -- -- 62
2019-06-17 08:00:00 15.2 4 Este 6 Este 0 -- -- 71
2019-06-17 07:00:00 15.5 5 Sur 12 Sur 0 -- -- 72
2019-06-17 06:00:00 15.6 10 Sur 13 Sur 0 -- -- 71
2019-06-17 05:00:00 15.6 11 Sur 15 Sur 0 -- -- 71
2019-06-17 04:00:00 16.1 12 Sur 17 Sur 0 -- -- 69
2019-06-17 03:00:00 16.4 12 Sur 17 Sur 0 -- -- 68
2019-06-17 02:00:00 16.9 12 Sur 19 Sudoeste 0 -- -- 67
2019-06-17 01:00:00 18.2 14 Sudoeste 26 Sudoeste 0 -- -- 62
2019-06-17 00:00:00 19.6 14 Sudoeste 17 Sudoeste 0 -- -- 54
2019-06-16 23:00:00 21.6 11 Sudoeste 24 Sudoeste 0 -- -- 41
2019-06-16 22:00:00 23.8 18 Sudoeste 33 Sudoeste 0 -- -- 40
2019-06-16 21:00:00 26.9 24 Sudoeste 37 Sudoeste 0 -- -- 34
2019-06-16 20:00:00 28.8 25 Sudoeste 36 Sudoeste 0 -- -- 35
2019-06-16 19:00:00 30.2 21 Sudoeste 35 Oeste 0 -- -- 33
2019-06-16 18:00:00 31 19 Sudoeste 33 Sudoeste 0 -- -- 31
2019-06-16 17:00:00 31 15 Sudoeste 32 Sudoeste 0 -- -- 30
2019-06-16 16:00:00 30 12 Oeste 29 Sudoeste 0 -- -- 29
2019-06-16 15:00:00 28.4 15 Oeste 26 Oeste 0 -- -- 31
2019-06-16 14:00:00 27 8 Oeste 15 Oeste 0 -- -- 34
2019-06-16 13:00:00 25.5 6 Oeste 15 Sudoeste 0 -- -- 37
2019-06-16 12:00:00 25.1 3 Sudeste 9 Norte 0 -- -- 37
2019-06-16 11:00:00 23.8 3 Noroeste 9 Norte 0 -- -- 40
2019-06-16 10:00:00 21.6 3 Nordeste 9 Este 0 -- -- 47
2019-06-16 09:00:00 17.9 2 Nordeste 5 Este 0 -- -- 57
2019-06-16 08:00:00 16 2 Sudeste 5 Sudeste 0 -- -- 62
2019-06-16 07:00:00 15.8 3 Sudeste 4 Este 0 -- -- 62
2019-06-16 06:00:00 15.7 0 Calma 3 Este 0 -- -- 63
2019-06-16 05:00:00 15.9 0 Calma 4 Sudoeste 0 -- -- 62
2019-06-16 04:00:00 16.9 5 Sudoeste 13 Sur 0 -- -- 59
2019-06-16 03:00:00 16.5 14 Sur 15 Sur 0 -- -- 60
2019-06-16 02:00:00 16.9 13 Sur 20 Sur 0 -- -- 59
2019-06-16 01:00:00 17.6 11 Sudoeste 19 Sudoeste 0 -- -- 56
2019-06-16 00:00:00 19.6 15 Sudoeste 24 Sudoeste 0 -- -- 50
2019-06-15 23:00:00 22 14 Sudoeste 23 Sudoeste 0 -- -- 45
2019-06-15 22:00:00 24.5 15 Sudoeste 22 Sudoeste 0 -- -- 38
2019-06-15 21:00:00 28.2 8 Sudoeste 15 Sudoeste 0 -- -- 25
2019-06-15 20:00:00 29.4 6 Sudoeste 15 Sudoeste 0 -- -- 24
2019-06-15 19:00:00 29.5 9 Oeste 18 Oeste 0 -- -- 23
2019-06-15 18:00:00 28.9 7 Este 18 Sudeste 0 -- -- 24
2019-06-15 17:00:00 28.7 7 Noroeste 21 Oeste 0 -- -- 25
2019-06-15 16:00:00 27.7 7 Sur 18 Sudoeste 0 -- -- 26
2019-06-15 15:00:00 26.2 10 Noroeste 20 Oeste 0 -- -- 28
2019-06-15 14:00:00 25.2 9 Noroeste 26 Oeste 0 -- -- 31
2019-06-15 13:00:00 24.5 12 Norte 29 Sudeste 0 -- -- 34
2019-06-15 12:00:00 22.9 9 Norte 23 Nordeste 0 -- -- 38
2019-06-15 11:00:00 21.2 9 Nordeste 20 Nordeste 0 -- -- 42
2019-06-15 10:00:00 19.7 7 Nordeste 19 Nordeste 0 -- -- 47
2019-06-15 09:00:00 17.8 6 Nordeste 16 Nordeste 0 -- -- 53
2019-06-15 08:00:00 14.2 3 Este 4 Este 0 -- -- 72
2019-06-15 07:00:00 13.7 0 Calma 8 Sudoeste 0 -- -- 74
2019-06-15 06:00:00 13.5 6 Sudoeste 8 Sudoeste 0 -- -- 75
2019-06-15 05:00:00 13.7 6 Sudoeste 10 Sudoeste 0 -- -- 74
2019-06-15 04:00:00 13.5 7 Sudoeste 12 Sudoeste 0 -- -- 73
2019-06-15 03:00:00 14.1 10 Sudoeste 17 Sudoeste 0 -- -- 72
2019-06-15 02:00:00 14.5 14 Sudoeste 19 Sudoeste 0 -- -- 69
2019-06-15 01:00:00 15.2 12 Sur 23 Sudoeste 0 -- -- 64
2019-06-15 00:00:00 16.4 18 Sudoeste 30 Sudoeste 0 -- -- 60
2019-06-14 23:00:00 17.2 23 Sudoeste 39 Sudoeste 0 -- -- 56
2019-06-14 22:00:00 18.5 30 Sudoeste 44 Sudoeste 0 -- -- 51
2019-06-14 21:00:00 20.7 35 Sudoeste 46 Sudoeste 0 -- -- 45
2019-06-14 20:00:00 22.4 34 Sudoeste 54 Sudoeste 0 -- -- 43
2019-06-14 19:00:00 23.5 33 Sudoeste 54 Sudoeste 0 -- -- 40
2019-06-14 18:00:00 24.8 35 Sudoeste 54 Sudoeste 0 -- -- 36
2019-06-14 17:00:00 25.1 30 Sudoeste 46 Sudoeste 0 -- -- 32
2019-06-14 16:00:00 24.6 29 Sudoeste 49 Sudoeste 0 -- -- 31
2019-06-14 15:00:00 23.6 30 Sudoeste 49 Sudoeste 0 -- -- 34
2019-06-14 14:00:00 22.7 32 Sudoeste 48 Sudoeste 0 -- -- 35
2019-06-14 13:00:00 21.9 29 Sudoeste 48 Sudoeste 0 -- -- 37
2019-06-14 12:00:00 21.2 32 Sudoeste 42 Sudoeste 0 -- -- 43
2019-06-14 11:00:00 19 29 Sudoeste 47 Sudoeste 0 -- -- 49
2019-06-14 10:00:00 18.3 35 Sudoeste 50 Sudoeste 0 -- -- 58
2019-06-14 09:00:00 17.5 29 Sudoeste 41 Sur 0 -- -- 65
2019-06-14 08:00:00 15.7 22 Sudoeste 41 Sudoeste 0 -- -- 74
2019-06-14 07:00:00 15.3 21 Sudoeste 32 Sudoeste 0 -- -- 77
2019-06-14 06:00:00 15.8 19 Sudoeste 27 Sudoeste 0 -- -- 70
2019-06-14 05:00:00 16.4 12 Sudoeste 17 Sudoeste 0 -- -- 61
2019-06-14 04:00:00 16.9 15 Sudoeste 26 Sudoeste 0 -- -- 59
2019-06-14 03:00:00 18 19 Sudoeste 27 Sudoeste 0 -- -- 55
2019-06-14 02:00:00 18.6 21 Sudoeste 28 Sudoeste 0 -- -- 55
2019-06-14 01:00:00 18.6 22 Sudoeste 35 Sudoeste 0 -- -- 55
2019-06-14 00:00:00 19.6 28 Sudoeste 48 Sudoeste 0 -- -- 53
2019-06-13 23:00:00 22.3 23 Sudoeste 32 Sudoeste 0 -- -- 43
2019-06-13 22:00:00 24.3 22 Sudoeste 37 Oeste 0 -- -- 41
2019-06-13 21:00:00 26.2 27 Oeste 36 Oeste 0 -- -- 27
2019-06-13 20:00:00 27.5 20 Oeste 31 Sudoeste 0 -- -- 29
2019-06-13 19:00:00 27.8 19 Oeste 34 Sudoeste 0 -- -- 31
2019-06-13 18:00:00 28.9 18 Sudoeste 38 Sudoeste 0 -- -- 34
2019-06-13 17:00:00 28.9 16 Sudoeste 33 Sudoeste 0 -- -- 36
2019-06-13 16:00:00 28.3 12 Oeste 27 Oeste 0 -- -- 38
2019-06-13 15:00:00 27.9 14 Sudoeste 21 Oeste 0 -- -- 38
2019-06-13 14:00:00 26.3 10 Oeste 19 Oeste 0 -- -- 42
2019-06-13 13:00:00 25.1 8 Sudoeste 15 Oeste 0 -- -- 47
2019-06-13 12:00:00 23.3 7 Sudoeste 14 Sudoeste 0 -- -- 53
2019-06-13 11:00:00 22.3 6 Sudoeste 15 Sudoeste 0 -- -- 56
2019-06-13 10:00:00 20.6 8 Oeste 12 Oeste 0 -- -- 60
2019-06-13 09:00:00 18.7 5 Sudoeste 9 Sur 0 -- -- 76
2019-06-13 08:00:00 16.7 5 Sur 9 Sur 0 -- -- 86
2019-06-13 07:00:00 15.8 3 Sudeste 9 Sur 0 -- -- 87
2019-06-13 06:00:00 16.5 5 Sur 12 Sur 0 -- -- 87
2019-06-13 05:00:00 16.8 8 Sur 16 Sur 0 -- -- 86
2019-06-13 04:00:00 16.8 8 Sudoeste 15 Sudoeste 0 -- -- 84
2019-06-13 03:00:00 17.3 12 Sur 20 Sur 0 -- -- 80
2019-06-13 02:00:00 17.9 15 Sudoeste 25 Sudoeste 0 -- -- 77
2019-06-13 01:00:00 19 20 Sudoeste 28 Sudoeste 0 -- -- 71
2019-06-13 00:00:00 19.9 19 Sudoeste 34 Sudoeste 0 -- -- 70
2019-06-12 23:00:00 21.7 24 Sudoeste 36 Sudoeste 0 -- -- 63
2019-06-12 22:00:00 24.5 24 Sudoeste 33 Sudoeste 0 -- -- 47
2019-06-12 21:00:00 28.6 13 Sudoeste 21 Sudoeste 0 -- -- 25
2019-06-12 20:00:00 29.6 8 Oeste 25 Sudoeste 0 -- -- 25
2019-06-12 19:00:00 30 12 Oeste 27 Oeste 0 -- -- 26
2019-06-12 18:00:00 30.6 11 Sudoeste 25 Sudoeste 0 -- -- 26
2019-06-12 17:00:00 29.9 12 Oeste 27 Sudoeste 0 -- -- 28
2019-06-12 16:00:00 29.2 12 Oeste 25 Sudoeste 0 -- -- 30
2019-06-12 15:00:00 28.8 13 Oeste 27 Oeste 0 -- -- 31
2019-06-12 14:00:00 27.8 6 Norte 14 Este 0 -- -- 35
2019-06-12 13:00:00 26.5 6 Este 17 Sudeste 0 -- -- 38
2019-06-12 12:00:00 25.3 5 Sur 12 Oeste 0 -- -- 44
2019-06-12 11:00:00 23.3 6 Oeste 13 Oeste 0 -- -- 50
2019-06-12 10:00:00 22 5 Sudeste 19 Sur 0 -- -- 55
2019-06-12 09:00:00 20 6 Este 12 Este 0 -- -- 65
2019-06-12 08:00:00 15.4 4 Este 12 Este 0 -- -- 72
2019-06-12 07:00:00 14.9 5 Este 12 Este 0 -- -- 75
2019-06-12 06:00:00 14.9 7 Sudeste 12 Sudeste 0 -- -- 76
2019-06-12 05:00:00 15.5 3 Sudeste 5 Este 0 -- -- 76
2019-06-12 04:00:00 15.8 2 Sudeste 12 Sudoeste 0 -- -- 74
2019-06-12 03:00:00 16.4 9 Sudoeste 17 Sudoeste 0 -- -- 73
2019-06-12 02:00:00 16.6 10 Sudoeste 19 Sudoeste 0 -- -- 71
2019-06-12 01:00:00 17.6 9 Sudoeste 20 Sudoeste 0 -- -- 67
2019-06-12 00:00:00 18.7 15 Sudoeste 25 Sudoeste 0 -- -- 64
2019-06-11 23:00:00 19.9 16 Sur 25 Sudoeste 0 -- -- 61
2019-06-11 22:00:00 21.5 21 Sudoeste 35 Sudoeste 0 -- -- 56
2019-06-11 21:00:00 24.2 28 Sudoeste 39 Sudoeste 0 -- -- 47
2019-06-11 20:00:00 26.9 27 Sudoeste 41 Oeste 0 -- -- 38
2019-06-11 19:00:00 29.9 20 Noroeste 38 Noroeste 0 -- -- 22
2019-06-11 18:00:00 29.9 24 Noroeste 39 Noroeste 0 -- -- 23
2019-06-11 17:00:00 29.8 15 Noroeste 36 Noroeste 0 -- -- 25
2019-06-11 16:00:00 29 14 Noroeste 37 Noroeste 0 -- -- 28
2019-06-11 15:00:00 27.4 14 Oeste 36 Noroeste 0 -- -- 31
2019-06-11 14:00:00 26.2 15 Oeste 24 Noroeste 0 -- -- 32
2019-06-11 13:00:00 24.1 8 Oeste 19 Oeste 0 -- -- 34
2019-06-11 12:00:00 22 8 Oeste 18 Oeste 0 -- -- 41
2019-06-11 11:00:00 20.7 8 Sudoeste 15 Oeste 0 -- -- 54
2019-06-11 10:00:00 19.6 5 Sudeste 10 Sudeste 0 -- -- 60
2019-06-11 09:00:00 16.6 6 Norte 12 Noroeste 0 -- -- 69
2019-06-11 08:00:00 13.9 4 Noroeste 10 Sudoeste 0 -- -- 84
2019-06-11 07:00:00 13.8 9 Sudoeste 15 Sur 0 -- -- 81
2019-06-11 06:00:00 13.7 10 Sudoeste 14 Sudoeste 0 -- -- 81
2019-06-11 05:00:00 14.3 10 Sudoeste 17 Sudoeste 0 -- -- 81
2019-06-11 04:00:00 14.6 12 Sudoeste 18 Sudoeste 0 -- -- 78
2019-06-11 03:00:00 15.2 10 Sudoeste 17 Sudoeste 0 -- -- 77
2019-06-11 02:00:00 15.6 11 Sudoeste 23 Sudoeste 0 -- -- 75
2019-06-11 01:00:00 16.4 14 Sudoeste 26 Sudoeste 0 -- -- 73
2019-06-11 00:00:00 17.3 18 Sudoeste 32 Sudoeste 0 -- -- 68
2019-06-10 23:00:00 18.1 23 Sudoeste 37 Sudoeste 0 -- -- 65
2019-06-10 22:00:00 19.2 26 Sudoeste 47 Sudoeste 0 -- -- 61
2019-06-10 21:00:00 21.7 33 Sudoeste 44 Sudoeste 0 -- -- 50
2019-06-10 20:00:00 24.7 34 Sudoeste 51 Sudoeste 0 -- -- 40
2019-06-10 19:00:00 27 34 Sudoeste 58 Sudoeste 0 -- -- 33
2019-06-10 18:00:00 29.8 22 Sudoeste 38 Sudoeste 0 -- -- 27
2019-06-10 17:00:00 29.2 13 Oeste 28 Oeste 0 -- -- 24
2019-06-10 16:00:00 28.5 14 Oeste 28 Sudoeste 0 -- -- 24
2019-06-10 15:00:00 27.3 10 Sudoeste 28 Sudoeste 0 -- -- 26
2019-06-10 14:00:00 26.5 16 Oeste 29 Oeste 0 -- -- 25
2019-06-10 13:00:00 25.1 10 Noroeste 24 Oeste 0 -- -- 27
2019-06-10 12:00:00 23.6 10 Oeste 21 Sudoeste 0 -- -- 34
2019-06-10 11:00:00 21.6 10 Oeste 19 Oeste 0 -- -- 44
2019-06-10 10:00:00 19.9 5 Oeste 13 Oeste 0 -- -- 48
2019-06-10 09:00:00 17.9 9 Noroeste 13 Noroeste 0 -- -- 55
2019-06-10 08:00:00 14.5 8 Sudoeste 13 Sudoeste 0 -- -- 74
2019-06-10 07:00:00 14.6 8 Sur 12 Sur 0 -- -- 72
2019-06-10 06:00:00 15.1 10 Sur 12 Sur 0 -- -- 69
2019-06-10 05:00:00 15.7 4 Sudoeste 8 Sur 0 -- -- 66
2019-06-10 04:00:00 16.3 6 Sudoeste 14 Sudoeste 0 -- -- 63
2019-06-10 03:00:00 16.5 11 Sudoeste 22 Sudoeste 0 -- -- 64
2019-06-10 02:00:00 16.9 11 Sudoeste 22 Sur 0 -- -- 61
2019-06-10 01:00:00 17.5 10 Sudoeste 26 Sudoeste 0 -- -- 57
2019-06-10 00:00:00 18.8 19 Sudoeste 39 Sudoeste 0 -- -- 53
2019-06-09 23:00:00 19.2 26 Sudoeste 43 Sudoeste 0 -- -- 50
2019-06-09 22:00:00 20.1 31 Sudoeste 48 Sudoeste 0 -- -- 47
2019-06-09 21:00:00 22.5 34 Sudoeste 53 Sudoeste 0 -- -- 41
2019-06-09 20:00:00 25.3 37 Sudoeste 55 Sudoeste 0 -- -- 32
2019-06-09 19:00:00 27.8 34 Sudoeste 51 Sudoeste 0 -- -- 27
2019-06-09 18:00:00 29.2 24 Sudoeste 45 Sudoeste 0 -- -- 21
2019-06-09 17:00:00 29.5 19 Sudoeste 36 Oeste 0 -- -- 25
2019-06-09 16:00:00 28.6 17 Oeste 31 Oeste 0 -- -- 28
2019-06-09 15:00:00 27.5 23 Oeste 36 Sudoeste 0 -- -- 33
2019-06-09 14:00:00 26.4 17 Sudoeste 35 Sudoeste 0 -- -- 35
2019-06-09 13:00:00 25.1 21 Oeste 37 Oeste 0 -- -- 41
2019-06-09 12:00:00 24 18 Oeste 29 Oeste 0 -- -- 48
2019-06-09 11:00:00 22.8 19 Sudoeste 28 Sudoeste 0 -- -- 58
2019-06-09 10:00:00 20.5 16 Sudoeste 21 Sudoeste 0 -- -- 69
2019-06-09 09:00:00 19.1 12 Oeste 15 Oeste 0 -- -- 75
2019-06-09 08:00:00 17 3 Este 6 Este 0 -- -- 79
2019-06-09 07:00:00 16.8 4 Sudoeste 11 Sudoeste 0 -- -- 78
2019-06-09 06:00:00 17.2 9 Sudoeste 16 Sudoeste 0 -- -- 75
2019-06-09 05:00:00 17.7 13 Sudoeste 19 Sudoeste 0 -- -- 69
2019-06-09 04:00:00 18.6 13 Sudoeste 17 Sudoeste 0 -- -- 58
2019-06-09 03:00:00 19.2 11 Sudoeste 21 Sudoeste 0 -- -- 52
2019-06-09 02:00:00 20 10 Sudoeste 26 Sudoeste 0 -- -- 47
2019-06-09 01:00:00 21 20 Sudoeste 26 Sudoeste 0 -- -- 43
2019-06-09 00:00:00 22.1 19 Sudoeste 28 Sudoeste 0 -- -- 42
2019-06-08 23:00:00 23.5 19 Sudoeste 31 Sudoeste 0 -- -- 40
2019-06-08 22:00:00 24.4 24 Sudoeste 36 Sudoeste 0 -- -- 39
2019-06-08 21:00:00 26.1 23 Sudoeste 40 Sudoeste 0 -- -- 37
2019-06-08 20:00:00 28.3 26 Oeste 35 Sudoeste 0 -- -- 35
2019-06-08 19:00:00 30.6 24 Oeste 35 Oeste 0 -- -- 28
2019-06-08 18:00:00 31.2 19 Oeste 39 Oeste 0 -- -- 28
2019-06-08 17:00:00 31.7 9 Sudoeste 31 Sudoeste 0 -- -- 23
2019-06-08 16:00:00 31.6 12 Sudoeste 32 Oeste 0 -- -- 22
2019-06-08 15:00:00 30.8 14 Sudoeste 30 Sudoeste 0 -- -- 22
2019-06-08 14:00:00 30.1 13 Sudoeste 25 Sudoeste 0 -- -- 22
2019-06-08 13:00:00 28.6 6 Sur 18 Sudoeste 0 -- -- 24
2019-06-08 12:00:00 26.5 6 Este 16 Este 0 -- -- 25
2019-06-08 11:00:00 24.3 8 Este 19 Este 0 -- -- 27
2019-06-08 10:00:00 22.3 8 Nordeste 18 Nordeste 0 -- -- 28
2019-06-08 09:00:00 19.8 5 Nordeste 12 Este 0 -- -- 34
2019-06-08 08:00:00 14.9 4 Este 7 Este 0 -- -- 42
2019-06-08 07:00:00 14.5 5 Este 8 Nordeste 0 -- -- 42
2019-06-08 06:00:00 15.3 4 Este 11 Este 0 -- -- 38
2019-06-08 05:00:00 15.9 8 Este 11 Este 0 -- -- 37
2019-06-08 04:00:00 15.8 9 Este 12 Este 0 -- -- 37
2019-06-08 03:00:00 16.8 4 Nordeste 13 Norte 0 -- -- 34
2019-06-08 02:00:00 18.1 8 Nordeste 15 Norte 0 -- -- 31
2019-06-08 01:00:00 19.3 8 Nordeste 16 Norte 0 -- -- 29
2019-06-08 00:00:00 20.6 5 Nordeste 14 Nordeste 0 -- -- 28
2019-06-07 23:00:00 21.9 5 Nordeste 10 Nordeste 0 -- -- 26
2019-06-07 22:00:00 24.1 5 Oeste 9 Norte 0 -- -- 24
2019-06-07 21:00:00 27 6 Noroeste 15 Norte 0 -- -- 21
2019-06-07 20:00:00 27.5 10 Noroeste 19 Oeste 0 -- -- 20
2019-06-07 19:00:00 27.7 8 Norte 17 Noroeste 0 -- -- 21
2019-06-07 18:00:00 27 10 Noroeste 25 Noroeste 0 -- -- 22
2019-06-07 17:00:00 26.6 10 Norte 21 Norte 0 -- -- 23
2019-06-07 16:00:00 26.1 10 Norte 22 Norte 0 -- -- 23
2019-06-07 15:00:00 25 13 Norte 31 Nordeste 0 -- -- 25
2019-06-07 14:00:00 23.3 6 Noroeste 18 Nordeste 0 -- -- 29
2019-06-07 13:00:00 21.9 8 Nordeste 20 Norte 0 -- -- 36
2019-06-07 12:00:00 21 8 Noroeste 21 Noroeste 0 -- -- 40
2019-06-07 11:00:00 19.5 12 Norte 24 Norte 0 -- -- 47
2019-06-07 10:00:00 17.7 12 Norte 23 Nordeste 0 -- -- 54
2019-06-07 09:00:00 16.8 7 Nordeste 19 Nordeste 0 -- -- 63
2019-06-07 08:00:00 16.8 9 Norte 22 Norte 0 -- -- 68
2019-06-07 07:00:00 16.4 13 Oeste 27 Sudoeste 0 -- -- 78
2019-06-07 06:00:00 16.3 16 Sudoeste 23 Sudoeste 0 -- -- 78
2019-06-07 05:00:00 16.2 18 Sudoeste 25 Sudoeste 0 -- -- 77
2019-06-07 04:00:00 15.4 17 Sudoeste 25 Sudoeste 0 -- -- 79
2019-06-07 03:00:00 15.1 18 Sudoeste 28 Sudoeste 0 -- -- 77
2019-06-07 02:00:00 15.6 19 Sudoeste 33 Sudoeste 0 -- -- 75
2019-06-07 01:00:00 16.1 26 Sudoeste 34 Sudoeste 0 -- -- 73
2019-06-07 00:00:00 16.7 26 Sudoeste 36 Sudoeste 0 -- -- 69
2019-06-06 23:00:00 17.6 26 Sudoeste 42 Sudoeste 0 -- -- 62
2019-06-06 22:00:00 18.8 30 Sudoeste 43 Sudoeste 0 -- -- 54
2019-06-06 21:00:00 21.1 29 Sudoeste 43 Sudoeste 0 -- -- 43
2019-06-06 20:00:00 23.4 29 Sudoeste 41 Sudoeste 0 -- -- 32
2019-06-06 19:00:00 25.5 26 Sudoeste 40 Sudoeste 0 -- -- 18
2019-06-06 18:00:00 26.2 30 Oeste 46 Oeste 0 -- -- 21
2019-06-06 17:00:00 27 26 Sudoeste 47 Sudoeste 0 -- -- 23
2019-06-06 16:00:00 26.7 26 Sudoeste 44 Sudoeste 0 -- -- 23
2019-06-06 15:00:00 26.3 16 Sudoeste 33 Sudoeste 0 -- -- 24
2019-06-06 14:00:00 25.1 16 Oeste 25 Sudoeste 0 -- -- 27
2019-06-06 13:00:00 23.8 9 Sudoeste 21 Sudoeste 0 -- -- 30
2019-06-06 12:00:00 22.5 5 Sudeste 13 Sudeste 0 -- -- 32
2019-06-06 11:00:00 20.8 6 Nordeste 14 Nordeste 0 -- -- 35
2019-06-06 10:00:00 19.2 6 Nordeste 19 Nordeste 0 -- -- 39
2019-06-06 09:00:00 17 6 Nordeste 15 Norte 0 -- -- 45
2019-06-06 08:00:00 13.2 3 Este 8 Nordeste 0 -- -- 57
2019-06-06 07:00:00 12.9 4 Nordeste 9 Este 0 -- -- 62
2019-06-06 06:00:00 13.2 3 Este 6 Nordeste 0 -- -- 71
2019-06-06 05:00:00 14.2 4 Nordeste 9 Noroeste 0 -- -- 64
2019-06-06 04:00:00 14.6 9 Sudoeste 15 Sudoeste 0 -- -- 68
2019-06-06 03:00:00 15.4 12 Sudoeste 21 Sudoeste 0 -- -- 63
2019-06-06 02:00:00 16 11 Sudoeste 18 Sur 0 -- -- 61
2019-06-06 01:00:00 16.2 15 Sudoeste 19 Sudoeste 0 -- -- 61
2019-06-06 00:00:00 17.6 15 Sur 21 Sur 0 -- -- 55
2019-06-05 23:00:00 19.6 13 Sur 19 Sur 0 -- -- 40
2019-06-05 22:00:00 21.4 7 Norte 19 Oeste 0 -- -- 29
2019-06-05 21:00:00 24 12 Noroeste 25 Oeste 0 -- -- 25
2019-06-05 20:00:00 25.5 9 Noroeste 26 Noroeste 0 -- -- 24
2019-06-05 19:00:00 26 10 Noroeste 32 Oeste 0 -- -- 24
2019-06-05 18:00:00 25.6 14 Oeste 29 Noroeste 0 -- -- 25
2019-06-05 17:00:00 25.5 13 Noroeste 30 Noroeste 0 -- -- 25
2019-06-05 16:00:00 24.4 15 Oeste 32 Oeste 0 -- -- 26
2019-06-05 15:00:00 24.7 14 Noroeste 35 Noroeste 0 -- -- 27
2019-06-05 14:00:00 23.3 16 Noroeste 33 Noroeste 0 -- -- 31
2019-06-05 13:00:00 22.6 17 Noroeste 32 Oeste 0 -- -- 32
2019-06-05 12:00:00 20.3 14 Oeste 29 Noroeste 0 -- -- 40
2019-06-05 11:00:00 18.8 10 Noroeste 33 Noroeste 0 -- -- 46
2019-06-05 10:00:00 17.4 18 Oeste 28 Oeste 0 -- -- 48
2019-06-05 09:00:00 16 14 Noroeste 21 Noroeste 0 -- -- 54
2019-06-05 08:00:00 14 12 Oeste 17 Oeste 0 -- -- 59
2019-06-05 07:00:00 13.1 10 Noroeste 24 Noroeste 0 -- -- 59
2019-06-05 06:00:00 14.8 14 Noroeste 34 Noroeste 0 -- -- 53
2019-06-05 05:00:00 16.1 20 Noroeste 31 Noroeste 0 -- -- 48
2019-06-05 04:00:00 18 24 Noroeste 39 Noroeste 0 -- -- 45
2019-06-05 03:00:00 19.7 19 Oeste 30 Oeste 0 -- -- 50
2019-06-05 02:00:00 20.4 18 Oeste 25 Oeste 0 -- -- 52
2019-06-05 01:00:00 20.9 15 Oeste 28 Oeste 0 -- -- 54
2019-06-05 00:00:00 21 13 Oeste 33 Sudoeste 0 -- -- 58
2019-06-04 23:00:00 20.7 24 Sudoeste 37 Sudoeste 0 -- -- 67
2019-06-04 22:00:00 21.5 28 Sudoeste 44 Sudoeste 0 -- -- 63
2019-06-04 21:00:00 23.5 35 Sudoeste 49 Sudoeste 0 -- -- 58
2019-06-04 20:00:00 26.1 33 Sudoeste 53 Sudoeste 0 -- -- 49
2019-06-04 19:00:00 27.6 37 Sudoeste 49 Sudoeste 0 -- -- 47
2019-06-04 18:00:00 29.8 33 Sudoeste 51 Sudoeste 0 -- -- 36
2019-06-04 17:00:00 30.8 27 Sudoeste 48 Oeste 0 -- -- 33
2019-06-04 16:00:00 30.8 27 Oeste 42 Sudoeste 0 -- -- 31
2019-06-04 15:00:00 30.6 24 Sudoeste 37 Sudoeste 0 -- -- 28
2019-06-04 14:00:00 28.9 19 Sudoeste 34 Oeste 0 -- -- 35
2019-06-04 13:00:00 27.2 18 Sudoeste 31 Sudoeste 0 -- -- 41
2019-06-04 12:00:00 25.7 16 Sudoeste 26 Sudoeste 0 -- -- 41
2019-06-04 11:00:00 23.1 14 Sudoeste 28 Sudoeste 0 -- -- 45
2019-06-04 10:00:00 20.7 17 Sudoeste 28 Sudoeste 0 -- -- 54
2019-06-04 09:00:00 18.6 16 Sudoeste 22 Sudoeste 0 -- -- 58
2019-06-04 08:00:00 16.9 11 Sudoeste 15 Sudoeste 0 -- -- 54
2019-06-04 07:00:00 16.7 8 Sudoeste 13 Sudoeste 0 -- -- 53
2019-06-04 06:00:00 16.7 10 Sudoeste 16 Sudoeste 0 -- -- 50
2019-06-04 05:00:00 17.6 10 Sudoeste 13 Sudoeste 0 -- -- 48
2019-06-04 04:00:00 18.2 9 Sudoeste 20 Sudoeste 0 -- -- 47
2019-06-04 03:00:00 19.2 13 Sudoeste 24 Sudoeste 0 -- -- 44
2019-06-04 02:00:00 19.5 15 Sudoeste 22 Sudoeste 0 -- -- 45
2019-06-04 01:00:00 19.7 12 Sudoeste 22 Sur 0 -- -- 48
2019-06-04 00:00:00 21.1 14 Sur 26 Sudoeste 0 -- -- 44
2019-06-03 23:00:00 24.3 21 Sudoeste 31 Sudoeste 0 -- -- 36
2019-06-03 22:00:00 26.6 18 Sudoeste 36 Sudoeste 0 -- -- 30
2019-06-03 21:00:00 30.3 24 Sudoeste 37 Sudoeste 0 -- -- 27
2019-06-03 20:00:00 34.1 21 Sudoeste 31 Oeste 0 -- -- 15
2019-06-03 19:00:00 35.2 21 Sudoeste 31 Sudoeste 0 -- -- 16
2019-06-03 18:00:00 35.7 21 Sudoeste 31 Sudoeste 0 -- -- 16
2019-06-03 17:00:00 35.7 12 Sudoeste 26 Oeste 0 -- -- 16
2019-06-03 16:00:00 35.1 13 Oeste 26 Sudoeste 0 -- -- 16
2019-06-03 15:00:00 34.2 7 Sur 22 Oeste 0 -- -- 17
2019-06-03 14:00:00 32.7 7 Sudeste 20 Sur 0 -- -- 18
2019-06-03 13:00:00 31.3 8 Sur 15 Este 0 -- -- 19
2019-06-03 12:00:00 29.8 6 Este 21 Este 0 -- -- 21
2019-06-03 11:00:00 27.5 5 Nordeste 12 Nordeste 0 -- -- 28
2019-06-03 10:00:00 25.5 4 Nordeste 9 Nordeste 0 -- -- 31
2019-06-03 09:00:00 23.1 3 Este 8 Sudeste 0 -- -- 41
2019-06-03 08:00:00 19.8 4 Sudeste 8 Sudeste 0 -- -- 50
2019-06-03 07:00:00 18.1 2 Sur 6 Sudeste 0 -- -- 56
2019-06-03 06:00:00 18.5 5 Sudeste 9 Sudeste 0 -- -- 56
2019-06-03 05:00:00 18.9 3 Sur 11 Sur 0 -- -- 55
2019-06-03 04:00:00 19.4 7 Sur 11 Sur 0 -- -- 51
2019-06-03 03:00:00 19.6 8 Sur 19 Sudoeste 0 -- -- 48
2019-06-03 02:00:00 20.9 10 Sudoeste 23 Sudoeste 0 -- -- 44
2019-06-03 01:00:00 21.5 14 Sur 26 Sudoeste 0 -- -- 42
2019-06-03 00:00:00 23.6 14 Sudoeste 26 Sudoeste 0 -- -- 35
2019-06-02 23:00:00 24.8 14 Sudoeste 22 Sudoeste 0 -- -- 34
2019-06-02 22:00:00 28.9 15 Sur 24 Sudeste 0 -- -- 20
2019-06-02 21:00:00 33.6 4 Sudeste 17 Sudeste 0 -- -- 14
2019-06-02 20:00:00 34.9 10 Sudeste 19 Sudeste 0 -- -- 12
2019-06-02 19:00:00 35.5 10 Sudeste 19 Este 0 -- -- 11
2019-06-02 18:00:00 35.8 11 Sudeste 26 Sudeste 0 -- -- 13
2019-06-02 17:00:00 35.7 4 Sudoeste 23 Sudeste 0 -- -- 15
2019-06-02 16:00:00 34.9 7 Nordeste 22 Sudeste 0 -- -- 16
2019-06-02 15:00:00 33.8 9 Este 24 Sudeste 0 -- -- 17
2019-06-02 14:00:00 32.4 11 Este 21 Sudeste 0 -- -- 19
2019-06-02 13:00:00 30.9 9 Este 28 Este 0 -- -- 23
2019-06-02 12:00:00 29.6 15 Este 30 Sudeste 0 -- -- 22
2019-06-02 11:00:00 27.9 14 Este 26 Este 0 -- -- 25
2019-06-02 10:00:00 25.8 12 Este 26 Sudeste 0 -- -- 29
2019-06-02 09:00:00 23 13 Este 26 Este 0 -- -- 34
2019-06-02 08:00:00 19.2 9 Este 20 Este 0 -- -- 41
2019-06-02 07:00:00 17.2 9 Este 15 Este 0 -- -- 43
2019-06-02 06:00:00 17.4 9 Este 13 Este 0 -- -- 42
2019-06-02 05:00:00 17.5 7 Nordeste 11 Nordeste 0 -- -- 41
2019-06-02 04:00:00 18.2 5 Noroeste 16 Sudeste 0 -- -- 38
2019-06-02 03:00:00 19.5 9 Sudeste 15 Sudeste 0 -- -- 36
2019-06-02 02:00:00 20.4 5 Este 12 Este 0 -- -- 33
2019-06-02 01:00:00 22.2 9 Sudeste 20 Sudeste 0 -- -- 29
2019-06-02 00:00:00 22.9 13 Sudeste 21 Sudeste 0 -- -- 27
2019-06-01 23:00:00 24 13 Sudeste 28 Sudeste 0 -- -- 27
2019-06-01 22:00:00 26.4 14 Sudeste 24 Sudeste 0 -- -- 25
2019-06-01 21:00:00 30.1 12 Sudeste 26 Sudeste 0 -- -- 22
2019-06-01 20:00:00 32.4 10 Sudeste 26 Sudeste 0 -- -- 20
2019-06-01 19:00:00 33 12 Sudeste 27 Sur 0 -- -- 19
2019-06-01 18:00:00 33.3 12 Sudeste 29 Sudeste 0 -- -- 20
2019-06-01 17:00:00 33.1 12 Sudeste 27 Este 0 -- -- 20
2019-06-01 16:00:00 32.7 10 Sudeste 30 Sudeste 0 -- -- 21
2019-06-01 15:00:00 32.1 14 Sudeste 30 Este 0 -- -- 23
2019-06-01 14:00:00 31.1 12 Sudeste 27 Sudeste 0 -- -- 25
2019-06-01 13:00:00 29.5 10 Sudeste 25 Este 0 -- -- 27
2019-06-01 12:00:00 28.2 13 Este 28 Sudeste 0 -- -- 29
2019-06-01 11:00:00 26 11 Este 27 Este 0 -- -- 36
2019-06-01 10:00:00 23.9 14 Este 28 Este 0 -- -- 40
2019-06-01 09:00:00 21.5 14 Este 28 Este 0 -- -- 47
2019-06-01 08:00:00 19.2 13 Este 32 Este 0 -- -- 55
2019-06-01 07:00:00 18.1 16 Este 27 Este 0 -- -- 57
2019-06-01 06:00:00 18.6 10 Este 23 Este 0 -- -- 53
2019-06-01 05:00:00 19.7 12 Sudeste 25 Este 0 -- -- 49
2019-06-01 04:00:00 20.2 14 Sudeste 29 Este 0 -- -- 47
2019-06-01 03:00:00 20.8 14 Sudeste 25 Sudeste 0 -- -- 46
2019-06-01 02:00:00 20.5 5 Este 17 Este 0 -- -- 43
2019-06-01 01:00:00 22 8 Sudeste 21 Sudeste 0 -- -- 38
2019-06-01 00:00:00 23.2 8 Sudeste 22 Sudeste 0 -- -- 34
2019-05-31 23:00:00 23.7 10 Sudeste 18 Sudeste 0 -- -- 32
2019-05-31 22:00:00 25.2 9 Sudeste 20 Sudeste 0 -- -- 30
2019-05-31 21:00:00 28.3 11 Sudeste 31 Sudeste 0 -- -- 25
2019-05-31 20:00:00 29.9 19 Sudeste 35 Sur 0 -- -- 23
2019-05-31 19:00:00 31.4 17 Sudeste 29 Sur 0 -- -- 22
2019-05-31 18:00:00 32.4 15 Sudeste 44 Sudeste 0 -- -- 22
2019-05-31 17:00:00 32.9 15 Sur 31 Sudeste 0 -- -- 22
2019-05-31 16:00:00 32.4 14 Sudeste 32 Sudeste 0 -- -- 23
2019-05-31 15:00:00 31.9 12 Sudeste 30 Sudeste 0 -- -- 24
2019-05-31 14:00:00 30.9 10 Sudeste 25 Este 0 -- -- 26
2019-05-31 13:00:00 29.4 12 Este 28 Sudeste 0 -- -- 28
2019-05-31 12:00:00 27.6 14 Este 27 Este 0 -- -- 31
2019-05-31 11:00:00 25.6 12 Este 28 Este 0 -- -- 36
2019-05-31 10:00:00 23.4 12 Este 26 Este 0 -- -- 41
2019-05-31 09:00:00 21.2 14 Este 27 Este 0 -- -- 46
2019-05-31 08:00:00 16.4 11 Este 16 Este 0 -- -- 58
2019-05-31 07:00:00 15.1 9 Este 12 Este 0 -- -- 59
2019-05-31 06:00:00 15.7 6 Este 13 Este 0 -- -- 53
2019-05-31 05:00:00 16.5 6 Este 13 Este 0 -- -- 49
2019-05-31 04:00:00 18.1 8 Este 17 Este 0 -- -- 47
2019-05-31 03:00:00 17.9 4 Este 12 Sudeste 0 -- -- 46
2019-05-31 02:00:00 19.1 8 Este 14 Sudeste 0 -- -- 41
2019-05-31 01:00:00 20.4 9 Sudeste 21 Sudeste 0 -- -- 33
2019-05-31 00:00:00 21 10 Sudeste 28 Sudeste 0 -- -- 33
2019-05-30 23:00:00 21.6 12 Sudeste 23 Sudeste 0 -- -- 31
2019-05-30 22:00:00 23.1 7 Sudeste 26 Este 0 -- -- 39
2019-05-30 21:00:00 26.4 12 Sudeste 30 Sudeste 0 -- -- 34
2019-05-30 20:00:00 29.1 14 Sudeste 28 Sudeste 0 -- -- 31
2019-05-30 19:00:00 30.4 13 Sudeste 30 Sur 0 -- -- 30
2019-05-30 18:00:00 30.4 13 Sudeste 31 Sudeste 0 -- -- 29
2019-05-30 17:00:00 30.7 15 Sudeste 29 Este 0 -- -- 29
2019-05-30 16:00:00 30.1 16 Sudeste 30 Sudeste 0 -- -- 31
2019-05-30 15:00:00 29.1 15 Sudeste 34 Sudeste 0 -- -- 32
2019-05-30 14:00:00 28.2 17 Sudeste 36 Sudeste 0 -- -- 34
2019-05-30 13:00:00 27.7 19 Sudeste 36 Sudeste 0 -- -- 35
2019-05-30 12:00:00 26.2 18 Sudeste 37 Este 0 -- -- 38
2019-05-30 11:00:00 24.8 18 Este 35 Este 0 -- -- 41
2019-05-30 10:00:00 22.9 19 Este 36 Sudeste 0 -- -- 46
2019-05-30 09:00:00 21 13 Este 34 Este 0 -- -- 51
2019-05-30 08:00:00 18.1 13 Este 28 Este 0 -- -- 57
2019-05-30 07:00:00 16.9 11 Este 19 Este 0 -- -- 61
2019-05-30 06:00:00 17.4 8 Este 19 Este 0 -- -- 62
2019-05-30 05:00:00 18 9 Este 23 Sudeste 0 -- -- 63
2019-05-30 04:00:00 18.1 10 Sudeste 18 Este 0 -- -- 62
2019-05-30 03:00:00 18.4 10 Sudeste 18 Sudeste 0 -- -- 59
2019-05-30 02:00:00 19.3 12 Sudeste 24 Sudeste 0 -- -- 54
2019-05-30 01:00:00 21 13 Sudeste 25 Sudeste 0 -- -- 46
2019-05-30 00:00:00 22.7 9 Sudeste 19 Este 0 -- -- 43
2019-05-29 23:00:00 25.1 9 Este 20 Este 0 -- -- 38
2019-05-29 22:00:00 28.2 8 Este 16 Este 0 -- -- 23
2019-05-29 21:00:00 31.9 12 Este 27 Este 0 -- -- 19
2019-05-29 20:00:00 33.2 14 Este 28 Nordeste 0 -- -- 18
2019-05-29 19:00:00 34.1 13 Este 28 Este 0 -- -- 18
2019-05-29 18:00:00 34.3 13 Este 25 Este 0 -- -- 17
2019-05-29 17:00:00 33.7 11 Este 30 Este 0 -- -- 18
2019-05-29 16:00:00 33.4 12 Nordeste 26 Este 0 -- -- 20
2019-05-29 15:00:00 32.4 12 Este 28 Nordeste 0 -- -- 21
2019-05-29 14:00:00 31.3 12 Este 31 Sudeste 0 -- -- 28
2019-05-29 13:00:00 30.2 13 Este 32 Este 0 -- -- 29
2019-05-29 12:00:00 28.8 17 Este 37 Este 0 -- -- 32
2019-05-29 11:00:00 27.3 19 Este 42 Este 0 -- -- 27
2019-05-29 10:00:00 25.3 20 Este 40 Este 0 -- -- 30
2019-05-29 09:00:00 23.3 21 Este 36 Este 0 -- -- 35
2019-05-29 08:00:00 20.9 14 Este 26 Este 0 -- -- 38
2019-05-29 07:00:00 20.5 13 Este 26 Este 0 -- -- 37
2019-05-29 06:00:00 20.2 13 Este 24 Este 0 -- -- 40
2019-05-29 05:00:00 18.1 9 Este 14 Este 0 -- -- 65
2019-05-29 04:00:00 18.6 7 Este 12 Este 0 -- -- 65
2019-05-29 03:00:00 19.7 7 Este 12 Este 0 -- -- 64
2019-05-29 02:00:00 20 11 Sudoeste 15 Sudoeste 0 -- -- 64
2019-05-29 01:00:00 20.8 12 Sudoeste 21 Sudoeste 0 -- -- 62
2019-05-29 00:00:00 22.3 14 Sudoeste 21 Sudoeste 0 -- -- 58
2019-05-28 23:00:00 24 12 Sudoeste 21 Sudoeste 0 -- -- 50
2019-05-28 22:00:00 26.4 19 Sudoeste 32 Sudoeste 0 -- -- 37
2019-05-28 21:00:00 29.3 25 Sudoeste 40 Sudoeste 0 -- -- 27
2019-05-28 20:00:00 32.4 28 Sudoeste 40 Oeste 0 -- -- 29
2019-05-28 19:00:00 35.9 15 Oeste 25 Oeste 0 -- -- 22
2019-05-28 18:00:00 35.9 13 Oeste 25 Oeste 0 -- -- 21
2019-05-28 17:00:00 36 7 Norte 21 Noroeste 0 -- -- 22
2019-05-28 16:00:00 35.1 9 Nordeste 19 Norte 0 -- -- 23
2019-05-28 15:00:00 34 5 Sudeste 19 Noroeste 0 -- -- 24
2019-05-28 14:00:00 32.8 8 Oeste 20 Noroeste 0 -- -- 28
2019-05-28 13:00:00 31.5 5 Sur 15 Sudoeste 0 -- -- 32
2019-05-28 12:00:00 29.5 5 Noroeste 11 Este 0 -- -- 36
2019-05-28 11:00:00 27.4 6 Nordeste 13 Norte 0 -- -- 40
2019-05-28 10:00:00 25.6 7 Nordeste 15 Nordeste 0 -- -- 45
2019-05-28 09:00:00 23.3 7 Nordeste 15 Este 0 -- -- 51
2019-05-28 08:00:00 19.3 0 Calma 9 Noroeste 0 -- -- 62
2019-05-28 07:00:00 19.1 3 Noroeste 8 Sur 0 -- -- 61
2019-05-28 06:00:00 19.3 7 Sur 15 Sudoeste 0 -- -- 59
2019-05-28 05:00:00 19.3 9 Sudoeste 13 Sudoeste 0 -- -- 59
2019-05-28 04:00:00 19.9 12 Sur 18 Sudoeste 0 -- -- 56
2019-05-28 03:00:00 20.2 11 Sudoeste 18 Sudoeste 0 -- -- 55
2019-05-28 02:00:00 20.7 12 Sudoeste 22 Sudoeste 0 -- -- 54
2019-05-28 01:00:00 21.8 19 Sudoeste 30 Sudoeste 0 -- -- 51
2019-05-28 00:00:00 21.8 17 Sudoeste 24 Sudoeste 0 -- -- 53
2019-05-27 23:00:00 23.6 16 Sudoeste 35 Sudoeste 0 -- -- 47
2019-05-27 22:00:00 26.1 21 Sudoeste 39 Sudoeste 0 -- -- 41
2019-05-27 21:00:00 30 24 Sudoeste 54 Sudoeste 0 -- -- 30
2019-05-27 20:00:00 32.1 31 Sudoeste 45 Sudoeste 0 -- -- 29
2019-05-27 19:00:00 35 21 Sudoeste 34 Sudoeste 0 -- -- 21
2019-05-27 18:00:00 35.1 15 Sudoeste 28 Sudoeste 0 -- -- 20
2019-05-27 17:00:00 35.1 15 Sudoeste 30 Sudoeste 0 -- -- 20
2019-05-27 16:00:00 34.1 14 Sudoeste 23 Oeste 0 -- -- 21
2019-05-27 15:00:00 33.2 6 Noroeste 18 Sudoeste 0 -- -- 22
2019-05-27 14:00:00 32 7 Noroeste 18 Este 0 -- -- 24
2019-05-27 13:00:00 29.5 6 Sur 14 Sur 0 -- -- 32
2019-05-27 12:00:00 27.1 4 Sudeste 11 Este 0 -- -- 37
2019-05-27 11:00:00 24.8 5 Este 14 Norte 0 -- -- 41
2019-05-27 10:00:00 22.7 8 Norte 13 Norte 0 -- -- 47
2019-05-27 09:00:00 21.1 3 Sudeste 11 Sudeste 0 -- -- 53
2019-05-27 08:00:00 17.4 6 Sudeste 10 Sudeste 0 -- -- 68
2019-05-27 07:00:00 16.9 5 Sudeste 8 Sudeste 0 -- -- 69
2019-05-27 06:00:00 17.6 6 Sur 9 Sur 0 -- -- 64
2019-05-27 05:00:00 17.4 3 Sudoeste 10 Sudoeste 0 -- -- 69
2019-05-27 04:00:00 17.4 7 Sudoeste 12 Sudoeste 0 -- -- 68
2019-05-27 03:00:00 17.7 10 Sudoeste 20 Sudoeste 0 -- -- 61
2019-05-27 02:00:00 18.5 14 Sudoeste 23 Sudoeste 0 -- -- 59
2019-05-27 01:00:00 19.2 19 Sudoeste 32 Sudoeste 0 -- -- 57
2019-05-27 00:00:00 20.4 22 Sudoeste 31 Sudoeste 0 -- -- 51
2019-05-26 23:00:00 23 21 Sudoeste 28 Sudoeste 0 -- -- 48
2019-05-26 22:00:00 27.1 13 Oeste 22 Oeste 0 -- -- 34
2019-05-26 21:00:00 31.5 10 Norte 21 Norte 0 -- -- 22
2019-05-26 20:00:00 32.6 10 Norte 23 Norte 0 -- -- 20
2019-05-26 19:00:00 33.2 14 Norte 33 Noroeste 0 -- -- 20
2019-05-26 18:00:00 33 15 Noroeste 32 Norte 0 -- -- 21
2019-05-26 17:00:00 32.3 10 Noroeste 26 Norte 0 -- -- 22
2019-05-26 16:00:00 31.9 8 Norte 27 Noroeste 0 -- -- 25
2019-05-26 15:00:00 30.6 12 Oeste 24 Nordeste 0 -- -- 27
2019-05-26 14:00:00 29.2 9 Este 18 Este 0 -- -- 28
2019-05-26 13:00:00 27.8 6 Sudeste 15 Nordeste 0 -- -- 35
2019-05-26 12:00:00 25.7 7 Sudeste 15 Este 0 -- -- 43
2019-05-26 11:00:00 23.8 5 Este 13 Sudeste 0 -- -- 48
2019-05-26 10:00:00 21.6 3 Norte 7 Norte 0 -- -- 60
2019-05-26 09:00:00 19.5 2 Norte 6 Sudeste 0 -- -- 68
2019-05-26 08:00:00 16.4 3 Este 7 Sudeste 0 -- -- 77
2019-05-26 07:00:00 16.6 3 Sudeste 9 Sur 0 -- -- 78
2019-05-26 06:00:00 16.7 5 Sur 8 Sudoeste 0 -- -- 77
2019-05-26 05:00:00 16.5 7 Sur 14 Sudoeste 0 -- -- 76
2019-05-26 04:00:00 16.4 12 Sudoeste 15 Sudoeste 0 -- -- 74
2019-05-26 03:00:00 17.3 13 Sur 20 Sudoeste 0 -- -- 71
2019-05-26 02:00:00 18 14 Sur 18 Sur 0 -- -- 70
2019-05-26 01:00:00 19.2 14 Sudoeste 24 Sudoeste 0 -- -- 68
2019-05-26 00:00:00 20.4 17 Sudoeste 28 Sudoeste 0 -- -- 64
2019-05-25 23:00:00 22.8 16 Sudoeste 29 Sudoeste 0 -- -- 53
2019-05-25 22:00:00 26.9 0 Calma 5 Este 0 -- -- 28
2019-05-25 21:00:00 29.6 3 Este 12 Nordeste 0 -- -- 24
2019-05-25 20:00:00 30.3 6 Nordeste 14 Este 0 -- -- 23
2019-05-25 19:00:00 30.6 8 Noroeste 22 Noroeste 0 -- -- 22
2019-05-25 18:00:00 30.9 12 Norte 23 Norte 0 -- -- 23
2019-05-25 17:00:00 30.3 6 Nordeste 24 Norte 0 -- -- 24
2019-05-25 16:00:00 29.3 4 Nordeste 25 Este 0 -- -- 26
2019-05-25 15:00:00 28.8 7 Este 27 Nordeste 0 -- -- 29
2019-05-25 14:00:00 28.1 11 Nordeste 23 Nordeste 0 -- -- 30
2019-05-25 13:00:00 27 10 Nordeste 23 Norte 0 -- -- 34
2019-05-25 12:00:00 25.8 9 Nordeste 25 Este 0 -- -- 36
2019-05-25 11:00:00 24.4 13 Nordeste 25 Este 0 -- -- 39
2019-05-25 10:00:00 22.8 10 Este 20 Este 0 -- -- 46
2019-05-25 09:00:00 20.9 6 Nordeste 14 Este 0 -- -- 53
2019-05-25 08:00:00 17 4 Nordeste 9 Nordeste 0 -- -- 64
2019-05-25 07:00:00 16.3 3 Nordeste 11 Nordeste 0 -- -- 73
2019-05-25 06:00:00 15.8 0 Calma 9 Este 0 -- -- 63
2019-05-25 05:00:00 16.1 5 Este 10 Este 0 -- -- 63
2019-05-25 04:00:00 17.1 5 Nordeste 9 Nordeste 0 -- -- 62
2019-05-25 03:00:00 17.8 5 Este 8 Este 0 -- -- 59
2019-05-25 02:00:00 18.4 3 Sudoeste 11 Sudoeste 0 -- -- 57
2019-05-25 01:00:00 18.7 9 Sudoeste 22 Sudoeste 0 -- -- 56
2019-05-25 00:00:00 19.6 15 Sudoeste 27 Sudoeste 0 -- -- 54